sensor_id;sensor_type;location;lat;lon;timestamp;P1;durP1;ratioP1;P2;durP2;ratioP2
33072;SDS011;19432;48.946;8.846;2022-08-19T00:01:46;8.20;;;6.60;;
33072;SDS011;19432;48.946;8.846;2022-08-19T00:04:14;8.57;;;7.65;;
33072;SDS011;19432;48.946;8.846;2022-08-19T00:06:42;9.63;;;7.22;;
33072;SDS011;19432;48.946;8.846;2022-08-19T00:09:10;10.23;;;7.20;;
33072;SDS011;19432;48.946;8.846;2022-08-19T00:11:38;8.68;;;6.75;;
33072;SDS011;19432;48.946;8.846;2022-08-19T00:14:05;9.55;;;6.85;;
33072;SDS011;19432;48.946;8.846;2022-08-19T00:16:33;9.35;;;7.47;;
33072;SDS011;19432;48.946;8.846;2022-08-19T00:18:59;9.82;;;7.25;;
33072;SDS011;19432;48.946;8.846;2022-08-19T00:21:25;8.63;;;7.05;;
33072;SDS011;19432;48.946;8.846;2022-08-19T00:23:52;9.88;;;6.68;;
33072;SDS011;19432;48.946;8.846;2022-08-19T00:26:18;9.07;;;7.32;;
33072;SDS011;19432;48.946;8.846;2022-08-19T00:28:45;8.55;;;6.85;;
33072;SDS011;19432;48.946;8.846;2022-08-19T00:31:11;9.18;;;7.57;;
33072;SDS011;19432;48.946;8.846;2022-08-19T00:33:37;8.73;;;7.32;;
33072;SDS011;19432;48.946;8.846;2022-08-19T00:36:04;10.05;;;7.38;;
33072;SDS011;19432;48.946;8.846;2022-08-19T00:38:32;10.30;;;7.43;;
33072;SDS011;19432;48.946;8.846;2022-08-19T00:40:59;8.38;;;6.95;;
33072;SDS011;19432;48.946;8.846;2022-08-19T00:43:25;10.15;;;7.07;;
33072;SDS011;19432;48.946;8.846;2022-08-19T00:45:52;8.70;;;7.25;;
33072;SDS011;19432;48.946;8.846;2022-08-19T00:48:18;11.20;;;7.60;;
33072;SDS011;19432;48.946;8.846;2022-08-19T00:50:45;9.70;;;7.53;;
33072;SDS011;19432;48.946;8.846;2022-08-19T00:53:14;10.55;;;8.05;;
33072;SDS011;19432;48.946;8.846;2022-08-19T00:55:47;9.40;;;7.80;;
33072;SDS011;19432;48.946;8.846;2022-08-19T00:58:17;9.55;;;8.07;;
33072;SDS011;19432;48.946;8.846;2022-08-19T01:00:49;11.00;;;8.25;;
33072;SDS011;19432;48.946;8.846;2022-08-19T01:03:17;9.65;;;7.88;;
33072;SDS011;19432;48.946;8.846;2022-08-19T01:05:45;9.57;;;7.63;;
33072;SDS011;19432;48.946;8.846;2022-08-19T01:08:12;10.40;;;8.10;;
33072;SDS011;19432;48.946;8.846;2022-08-19T01:10:41;12.35;;;8.23;;
33072;SDS011;19432;48.946;8.846;2022-08-19T01:13:09;11.15;;;8.40;;
33072;SDS011;19432;48.946;8.846;2022-08-19T01:15:40;12.90;;;8.38;;
33072;SDS011;19432;48.946;8.846;2022-08-19T01:18:09;10.82;;;8.38;;
33072;SDS011;19432;48.946;8.846;2022-08-19T01:20:39;11.68;;;8.77;;
33072;SDS011;19432;48.946;8.846;2022-08-19T01:23:06;12.48;;;8.68;;
33072;SDS011;19432;48.946;8.846;2022-08-19T01:25:35;8.95;;;7.78;;
33072;SDS011;19432;48.946;8.846;2022-08-19T01:28:07;12.93;;;9.15;;
33072;SDS011;19432;48.946;8.846;2022-08-19T01:30:34;12.05;;;8.48;;
33072;SDS011;19432;48.946;8.846;2022-08-19T01:33:00;9.98;;;8.77;;
33072;SDS011;19432;48.946;8.846;2022-08-19T01:35:30;11.13;;;8.27;;
33072;SDS011;19432;48.946;8.846;2022-08-19T01:38:02;10.15;;;8.55;;
33072;SDS011;19432;48.946;8.846;2022-08-19T01:40:33;11.23;;;9.23;;
33072;SDS011;19432;48.946;8.846;2022-08-19T01:43:01;10.07;;;8.80;;
33072;SDS011;19432;48.946;8.846;2022-08-19T01:45:28;11.35;;;8.32;;
33072;SDS011;19432;48.946;8.846;2022-08-19T01:47:56;10.80;;;8.68;;
33072;SDS011;19432;48.946;8.846;2022-08-19T01:50:22;11.02;;;8.77;;
33072;SDS011;19432;48.946;8.846;2022-08-19T01:52:48;10.30;;;8.40;;
33072;SDS011;19432;48.946;8.846;2022-08-19T01:55:14;10.82;;;8.38;;
33072;SDS011;19432;48.946;8.846;2022-08-19T01:57:43;11.88;;;8.80;;
33072;SDS011;19432;48.946;8.846;2022-08-19T02:00:14;11.88;;;8.07;;
33072;SDS011;19432;48.946;8.846;2022-08-19T02:02:42;11.82;;;9.10;;
33072;SDS011;19432;48.946;8.846;2022-08-19T02:05:08;13.38;;;9.75;;
33072;SDS011;19432;48.946;8.846;2022-08-19T02:07:35;12.07;;;8.77;;
33072;SDS011;19432;48.946;8.846;2022-08-19T02:10:05;11.27;;;8.27;;
33072;SDS011;19432;48.946;8.846;2022-08-19T02:12:33;12.13;;;9.20;;
33072;SDS011;19432;48.946;8.846;2022-08-19T02:15:00;12.68;;;9.13;;
33072;SDS011;19432;48.946;8.846;2022-08-19T02:17:27;12.73;;;9.05;;
33072;SDS011;19432;48.946;8.846;2022-08-19T02:19:54;11.43;;;9.57;;
33072;SDS011;19432;48.946;8.846;2022-08-19T02:22:23;11.43;;;9.07;;
33072;SDS011;19432;48.946;8.846;2022-08-19T02:24:50;11.73;;;9.70;;
33072;SDS011;19432;48.946;8.846;2022-08-19T02:27:16;12.45;;;9.63;;
33072;SDS011;19432;48.946;8.846;2022-08-19T02:29:42;10.00;;;8.90;;
33072;SDS011;19432;48.946;8.846;2022-08-19T02:32:08;11.50;;;9.70;;
33072;SDS011;19432;48.946;8.846;2022-08-19T02:34:34;12.00;;;10.07;;
33072;SDS011;19432;48.946;8.846;2022-08-19T02:36:59;11.10;;;9.38;;
33072;SDS011;19432;48.946;8.846;2022-08-19T02:39:25;11.30;;;8.88;;
33072;SDS011;19432;48.946;8.846;2022-08-19T02:41:51;12.13;;;9.73;;
33072;SDS011;19432;48.946;8.846;2022-08-19T02:44:17;11.32;;;9.70;;
33072;SDS011;19432;48.946;8.846;2022-08-19T02:46:44;12.35;;;9.50;;
33072;SDS011;19432;48.946;8.846;2022-08-19T02:49:11;11.90;;;9.65;;
33072;SDS011;19432;48.946;8.846;2022-08-19T02:51:43;10.63;;;8.88;;
33072;SDS011;19432;48.946;8.846;2022-08-19T02:54:10;11.88;;;9.70;;
33072;SDS011;19432;48.946;8.846;2022-08-19T02:56:39;12.77;;;9.77;;
33072;SDS011;19432;48.946;8.846;2022-08-19T02:59:06;11.05;;;9.93;;
33072;SDS011;19432;48.946;8.846;2022-08-19T03:01:36;12.10;;;9.65;;
33072;SDS011;19432;48.946;8.846;2022-08-19T03:04:05;12.80;;;10.32;;
33072;SDS011;19432;48.946;8.846;2022-08-19T03:06:31;10.57;;;9.43;;
33072;SDS011;19432;48.946;8.846;2022-08-19T03:09:00;10.93;;;9.80;;
33072;SDS011;19432;48.946;8.846;2022-08-19T03:11:30;12.20;;;10.27;;
33072;SDS011;19432;48.946;8.846;2022-08-19T03:13:57;13.18;;;9.80;;
33072;SDS011;19432;48.946;8.846;2022-08-19T03:16:24;12.30;;;9.30;;
33072;SDS011;19432;48.946;8.846;2022-08-19T03:18:51;11.88;;;9.90;;
33072;SDS011;19432;48.946;8.846;2022-08-19T03:21:18;12.57;;;9.82;;
33072;SDS011;19432;48.946;8.846;2022-08-19T03:23:47;14.68;;;10.30;;
33072;SDS011;19432;48.946;8.846;2022-08-19T03:26:12;13.02;;;10.60;;
33072;SDS011;19432;48.946;8.846;2022-08-19T03:28:40;11.38;;;10.18;;
33072;SDS011;19432;48.946;8.846;2022-08-19T03:31:08;13.60;;;10.10;;
33072;SDS011;19432;48.946;8.846;2022-08-19T03:33:37;12.73;;;9.68;;
33072;SDS011;19432;48.946;8.846;2022-08-19T03:38:43;13.43;;;9.77;;
33072;SDS011;19432;48.946;8.846;2022-08-19T03:41:15;13.40;;;9.63;;
33072;SDS011;19432;48.946;8.846;2022-08-19T03:43:45;12.10;;;10.57;;
33072;SDS011;19432;48.946;8.846;2022-08-19T03:46:18;13.75;;;10.60;;
33072;SDS011;19432;48.946;8.846;2022-08-19T03:48:46;11.90;;;9.85;;
33072;SDS011;19432;48.946;8.846;2022-08-19T03:51:21;14.15;;;10.68;;
33072;SDS011;19432;48.946;8.846;2022-08-19T03:53:52;11.05;;;9.43;;
33072;SDS011;19432;48.946;8.846;2022-08-19T03:56:19;12.32;;;10.10;;
33072;SDS011;19432;48.946;8.846;2022-08-19T03:58:44;11.40;;;9.95;;
33072;SDS011;19432;48.946;8.846;2022-08-19T04:01:14;13.15;;;9.98;;
33072;SDS011;19432;48.946;8.846;2022-08-19T04:03:43;11.98;;;10.10;;
33072;SDS011;19432;48.946;8.846;2022-08-19T04:08:42;12.70;;;9.82;;
33072;SDS011;19432;48.946;8.846;2022-08-19T04:11:09;11.60;;;9.73;;
33072;SDS011;19432;48.946;8.846;2022-08-19T04:13:36;13.18;;;9.70;;
33072;SDS011;19432;48.946;8.846;2022-08-19T04:16:03;11.95;;;9.80;;
33072;SDS011;19432;48.946;8.846;2022-08-19T04:18:29;12.77;;;9.90;;
33072;SDS011;19432;48.946;8.846;2022-08-19T04:20:56;11.55;;;10.35;;
33072;SDS011;19432;48.946;8.846;2022-08-19T04:23:22;12.73;;;9.82;;
33072;SDS011;19432;48.946;8.846;2022-08-19T04:25:48;13.60;;;10.38;;
33072;SDS011;19432;48.946;8.846;2022-08-19T04:28:13;12.50;;;10.48;;
33072;SDS011;19432;48.946;8.846;2022-08-19T04:30:40;12.25;;;10.18;;
33072;SDS011;19432;48.946;8.846;2022-08-19T04:33:09;13.35;;;9.98;;
33072;SDS011;19432;48.946;8.846;2022-08-19T04:35:36;12.32;;;10.23;;
33072;SDS011;19432;48.946;8.846;2022-08-19T04:38:03;12.63;;;10.13;;
33072;SDS011;19432;48.946;8.846;2022-08-19T04:40:29;12.38;;;10.10;;
33072;SDS011;19432;48.946;8.846;2022-08-19T04:43:13;12.35;;;9.90;;
33072;SDS011;19432;48.946;8.846;2022-08-19T04:45:39;12.93;;;10.25;;
33072;SDS011;19432;48.946;8.846;2022-08-19T04:48:05;13.68;;;9.27;;
33072;SDS011;19432;48.946;8.846;2022-08-19T04:50:31;13.25;;;10.07;;
33072;SDS011;19432;48.946;8.846;2022-08-19T04:52:56;12.23;;;9.93;;
33072;SDS011;19432;48.946;8.846;2022-08-19T04:55:22;11.63;;;9.55;;
33072;SDS011;19432;48.946;8.846;2022-08-19T04:57:50;13.98;;;10.70;;
33072;SDS011;19432;48.946;8.846;2022-08-19T05:00:16;12.02;;;10.73;;
33072;SDS011;19432;48.946;8.846;2022-08-19T05:02:42;13.18;;;10.18;;
33072;SDS011;19432;48.946;8.846;2022-08-19T05:05:07;13.65;;;10.38;;
33072;SDS011;19432;48.946;8.846;2022-08-19T05:07:33;13.63;;;10.25;;
33072;SDS011;19432;48.946;8.846;2022-08-19T05:09:59;11.52;;;9.73;;
33072;SDS011;19432;48.946;8.846;2022-08-19T05:12:25;14.07;;;10.45;;
33072;SDS011;19432;48.946;8.846;2022-08-19T05:14:53;12.68;;;10.23;;
33072;SDS011;19432;48.946;8.846;2022-08-19T05:17:19;12.52;;;10.35;;
33072;SDS011;19432;48.946;8.846;2022-08-19T05:19:44;13.13;;;10.27;;
33072;SDS011;19432;48.946;8.846;2022-08-19T05:22:28;13.55;;;10.90;;
33072;SDS011;19432;48.946;8.846;2022-08-19T05:24:57;12.80;;;10.40;;
33072;SDS011;19432;48.946;8.846;2022-08-19T05:27:24;12.77;;;10.35;;
33072;SDS011;19432;48.946;8.846;2022-08-19T05:29:49;12.85;;;10.70;;
33072;SDS011;19432;48.946;8.846;2022-08-19T05:32:15;13.00;;;11.05;;
33072;SDS011;19432;48.946;8.846;2022-08-19T05:34:40;11.55;;;10.07;;
33072;SDS011;19432;48.946;8.846;2022-08-19T05:37:06;13.35;;;10.43;;
33072;SDS011;19432;48.946;8.846;2022-08-19T05:39:33;12.73;;;9.90;;
33072;SDS011;19432;48.946;8.846;2022-08-19T05:42:02;13.10;;;11.00;;
33072;SDS011;19432;48.946;8.846;2022-08-19T05:44:32;13.68;;;9.35;;
33072;SDS011;19432;48.946;8.846;2022-08-19T05:47:00;13.02;;;10.25;;
33072;SDS011;19432;48.946;8.846;2022-08-19T05:49:28;11.90;;;10.55;;
33072;SDS011;19432;48.946;8.846;2022-08-19T05:51:54;15.07;;;10.55;;
33072;SDS011;19432;48.946;8.846;2022-08-19T05:54:20;11.70;;;9.55;;
33072;SDS011;19432;48.946;8.846;2022-08-19T05:56:48;12.85;;;9.75;;
33072;SDS011;19432;48.946;8.846;2022-08-19T05:59:15;12.93;;;10.63;;
33072;SDS011;19432;48.946;8.846;2022-08-19T06:01:43;12.05;;;9.57;;
33072;SDS011;19432;48.946;8.846;2022-08-19T06:04:11;13.10;;;10.18;;
33072;SDS011;19432;48.946;8.846;2022-08-19T06:06:38;12.50;;;10.52;;
33072;SDS011;19432;48.946;8.846;2022-08-19T06:09:05;11.38;;;9.52;;
33072;SDS011;19432;48.946;8.846;2022-08-19T06:14:05;13.63;;;9.77;;
33072;SDS011;19432;48.946;8.846;2022-08-19T06:16:39;12.95;;;9.77;;
33072;SDS011;19432;48.946;8.846;2022-08-19T06:19:07;12.60;;;10.13;;
33072;SDS011;19432;48.946;8.846;2022-08-19T06:21:39;12.05;;;9.38;;
33072;SDS011;19432;48.946;8.846;2022-08-19T06:24:08;11.50;;;9.23;;
33072;SDS011;19432;48.946;8.846;2022-08-19T06:26:35;10.60;;;9.18;;
33072;SDS011;19432;48.946;8.846;2022-08-19T06:29:03;13.15;;;9.77;;
33072;SDS011;19432;48.946;8.846;2022-08-19T06:31:31;13.32;;;10.57;;
33072;SDS011;19432;48.946;8.846;2022-08-19T06:33:59;11.13;;;9.30;;
33072;SDS011;19432;48.946;8.846;2022-08-19T06:36:30;11.05;;;9.27;;
33072;SDS011;19432;48.946;8.846;2022-08-19T06:39:02;14.30;;;9.95;;
33072;SDS011;19432;48.946;8.846;2022-08-19T06:41:46;10.10;;;9.05;;
33072;SDS011;19432;48.946;8.846;2022-08-19T06:44:15;13.68;;;10.02;;
33072;SDS011;19432;48.946;8.846;2022-08-19T06:46:42;12.85;;;10.35;;
33072;SDS011;19432;48.946;8.846;2022-08-19T06:49:08;16.10;;;11.65;;
33072;SDS011;19432;48.946;8.846;2022-08-19T06:51:38;10.48;;;9.18;;
33072;SDS011;19432;48.946;8.846;2022-08-19T06:54:08;11.82;;;10.07;;
33072;SDS011;19432;48.946;8.846;2022-08-19T06:56:35;11.05;;;9.85;;
33072;SDS011;19432;48.946;8.846;2022-08-19T06:59:05;15.88;;;10.70;;
33072;SDS011;19432;48.946;8.846;2022-08-19T07:01:52;11.57;;;9.30;;
33072;SDS011;19432;48.946;8.846;2022-08-19T07:04:21;10.98;;;9.02;;
33072;SDS011;19432;48.946;8.846;2022-08-19T07:06:48;11.70;;;9.32;;
33072;SDS011;19432;48.946;8.846;2022-08-19T07:09:15;10.48;;;9.35;;
33072;SDS011;19432;48.946;8.846;2022-08-19T07:11:46;11.80;;;8.95;;
33072;SDS011;19432;48.946;8.846;2022-08-19T07:14:14;11.90;;;9.45;;
33072;SDS011;19432;48.946;8.846;2022-08-19T07:16:43;11.13;;;9.25;;
33072;SDS011;19432;48.946;8.846;2022-08-19T07:19:10;10.07;;;8.25;;
33072;SDS011;19432;48.946;8.846;2022-08-19T07:21:37;14.02;;;11.18;;
33072;SDS011;19432;48.946;8.846;2022-08-19T07:24:03;12.25;;;9.70;;
33072;SDS011;19432;48.946;8.846;2022-08-19T07:26:31;9.77;;;8.13;;
33072;SDS011;19432;48.946;8.846;2022-08-19T07:28:57;11.38;;;9.20;;
33072;SDS011;19432;48.946;8.846;2022-08-19T07:31:25;9.63;;;8.18;;
33072;SDS011;19432;48.946;8.846;2022-08-19T07:33:52;10.05;;;9.00;;
33072;SDS011;19432;48.946;8.846;2022-08-19T07:36:21;9.77;;;8.65;;
33072;SDS011;19432;48.946;8.846;2022-08-19T07:38:56;11.43;;;9.20;;
33072;SDS011;19432;48.946;8.846;2022-08-19T07:41:22;10.55;;;8.75;;
33072;SDS011;19432;48.946;8.846;2022-08-19T07:43:50;9.65;;;8.00;;
33072;SDS011;19432;48.946;8.846;2022-08-19T07:46:17;10.88;;;8.63;;
33072;SDS011;19432;48.946;8.846;2022-08-19T07:48:45;9.77;;;8.35;;
33072;SDS011;19432;48.946;8.846;2022-08-19T07:51:14;10.60;;;9.13;;
33072;SDS011;19432;48.946;8.846;2022-08-19T07:53:41;8.93;;;8.00;;
33072;SDS011;19432;48.946;8.846;2022-08-19T07:56:09;9.85;;;8.50;;
33072;SDS011;19432;48.946;8.846;2022-08-19T07:58:38;9.98;;;8.35;;
33072;SDS011;19432;48.946;8.846;2022-08-19T08:01:06;9.85;;;8.05;;
33072;SDS011;19432;48.946;8.846;2022-08-19T08:03:35;10.63;;;9.52;;
33072;SDS011;19432;48.946;8.846;2022-08-19T08:06:20;12.65;;;9.02;;
33072;SDS011;19432;48.946;8.846;2022-08-19T08:09:05;10.52;;;7.90;;
33072;SDS011;19432;48.946;8.846;2022-08-19T08:11:46;9.57;;;8.52;;
33072;SDS011;19432;48.946;8.846;2022-08-19T08:14:17;10.95;;;8.98;;
33072;SDS011;19432;48.946;8.846;2022-08-19T08:16:47;11.52;;;8.02;;
33072;SDS011;19432;48.946;8.846;2022-08-19T08:19:16;9.20;;;7.78;;
33072;SDS011;19432;48.946;8.846;2022-08-19T08:21:43;9.15;;;8.23;;
33072;SDS011;19432;48.946;8.846;2022-08-19T08:24:09;9.57;;;8.32;;
33072;SDS011;19432;48.946;8.846;2022-08-19T08:26:35;9.45;;;8.50;;
33072;SDS011;19432;48.946;8.846;2022-08-19T08:29:01;9.98;;;8.27;;
33072;SDS011;19432;48.946;8.846;2022-08-19T08:31:26;10.32;;;8.35;;
33072;SDS011;19432;48.946;8.846;2022-08-19T08:33:53;10.90;;;8.63;;
33072;SDS011;19432;48.946;8.846;2022-08-19T08:36:19;8.65;;;7.75;;
33072;SDS011;19432;48.946;8.846;2022-08-19T08:38:44;8.50;;;7.65;;
33072;SDS011;19432;48.946;8.846;2022-08-19T08:41:28;8.65;;;7.72;;
33072;SDS011;19432;48.946;8.846;2022-08-19T08:44:02;8.57;;;7.18;;
33072;SDS011;19432;48.946;8.846;2022-08-19T08:49:17;8.40;;;7.18;;
33072;SDS011;19432;48.946;8.846;2022-08-19T08:54:37;9.38;;;7.60;;
33072;SDS011;19432;48.946;8.846;2022-08-19T08:57:23;8.02;;;7.25;;
33072;SDS011;19432;48.946;8.846;2022-08-19T08:59:53;8.25;;;7.40;;
33072;SDS011;19432;48.946;8.846;2022-08-19T09:02:21;8.68;;;7.63;;
33072;SDS011;19432;48.946;8.846;2022-08-19T09:04:46;7.90;;;6.50;;
33072;SDS011;19432;48.946;8.846;2022-08-19T09:09:42;8.20;;;6.13;;
33072;SDS011;19432;48.946;8.846;2022-08-19T09:14:48;6.93;;;6.22;;
33072;SDS011;19432;48.946;8.846;2022-08-19T09:17:33;6.75;;;6.05;;
33072;SDS011;19432;48.946;8.846;2022-08-19T09:22:38;7.25;;;6.53;;
33072;SDS011;19432;48.946;8.846;2022-08-19T09:25:06;7.65;;;6.20;;
33072;SDS011;19432;48.946;8.846;2022-08-19T09:27:33;6.22;;;5.63;;
33072;SDS011;19432;48.946;8.846;2022-08-19T09:30:02;8.35;;;6.80;;
33072;SDS011;19432;48.946;8.846;2022-08-19T09:32:30;7.57;;;6.00;;
33072;SDS011;19432;48.946;8.846;2022-08-19T09:34:56;6.53;;;5.88;;
33072;SDS011;19432;48.946;8.846;2022-08-19T09:37:23;6.70;;;6.10;;
33072;SDS011;19432;48.946;8.846;2022-08-19T09:39:49;7.35;;;5.78;;
33072;SDS011;19432;48.946;8.846;2022-08-19T09:42:16;8.40;;;5.40;;
33072;SDS011;19432;48.946;8.846;2022-08-19T09:44:42;7.00;;;6.00;;
33072;SDS011;19432;48.946;8.846;2022-08-19T09:47:08;5.28;;;4.78;;
33072;SDS011;19432;48.946;8.846;2022-08-19T09:49:36;5.70;;;5.18;;
33072;SDS011;19432;48.946;8.846;2022-08-19T09:52:03;8.00;;;6.65;;
33072;SDS011;19432;48.946;8.846;2022-08-19T09:54:29;6.25;;;5.65;;
33072;SDS011;19432;48.946;8.846;2022-08-19T09:56:55;5.88;;;5.22;;
33072;SDS011;19432;48.946;8.846;2022-08-19T09:59:25;6.20;;;5.18;;
33072;SDS011;19432;48.946;8.846;2022-08-19T10:01:51;6.18;;;5.57;;
33072;SDS011;19432;48.946;8.846;2022-08-19T10:04:17;5.60;;;4.57;;
33072;SDS011;19432;48.946;8.846;2022-08-19T10:06:42;6.00;;;5.40;;
33072;SDS011;19432;48.946;8.846;2022-08-19T10:09:09;5.50;;;5.00;;
33072;SDS011;19432;48.946;8.846;2022-08-19T10:11:36;5.88;;;5.28;;
33072;SDS011;19432;48.946;8.846;2022-08-19T10:14:06;5.97;;;5.22;;
33072;SDS011;19432;48.946;8.846;2022-08-19T10:16:32;6.30;;;5.35;;
33072;SDS011;19432;48.946;8.846;2022-08-19T10:18:58;6.63;;;5.40;;
33072;SDS011;19432;48.946;8.846;2022-08-19T10:21:26;7.53;;;5.95;;
33072;SDS011;19432;48.946;8.846;2022-08-19T10:23:54;5.60;;;5.10;;
33072;SDS011;19432;48.946;8.846;2022-08-19T10:26:23;5.00;;;4.50;;
33072;SDS011;19432;48.946;8.846;2022-08-19T10:28:54;5.93;;;5.00;;
33072;SDS011;19432;48.946;8.846;2022-08-19T10:31:22;5.55;;;4.75;;
33072;SDS011;19432;48.946;8.846;2022-08-19T10:33:52;5.13;;;4.63;;
33072;SDS011;19432;48.946;8.846;2022-08-19T10:36:23;5.03;;;4.10;;
33072;SDS011;19432;48.946;8.846;2022-08-19T10:38:51;4.90;;;4.38;;
33072;SDS011;19432;48.946;8.846;2022-08-19T10:41:22;4.68;;;4.20;;
33072;SDS011;19432;48.946;8.846;2022-08-19T10:43:57;4.78;;;4.20;;
33072;SDS011;19432;48.946;8.846;2022-08-19T10:46:26;3.97;;;3.67;;
33072;SDS011;19432;48.946;8.846;2022-08-19T10:48:53;4.63;;;4.13;;
33072;SDS011;19432;48.946;8.846;2022-08-19T10:51:19;4.63;;;4.22;;
33072;SDS011;19432;48.946;8.846;2022-08-19T10:54:04;4.88;;;4.30;;
33072;SDS011;19432;48.946;8.846;2022-08-19T10:56:30;5.15;;;4.22;;
33072;SDS011;19432;48.946;8.846;2022-08-19T10:59:14;4.18;;;3.80;;
33072;SDS011;19432;48.946;8.846;2022-08-19T11:01:42;4.28;;;3.88;;
33072;SDS011;19432;48.946;8.846;2022-08-19T11:04:10;5.50;;;4.03;;
33072;SDS011;19432;48.946;8.846;2022-08-19T11:06:38;3.63;;;3.33;;
33072;SDS011;19432;48.946;8.846;2022-08-19T11:09:08;5.65;;;3.97;;
33072;SDS011;19432;48.946;8.846;2022-08-19T11:11:36;3.97;;;3.63;;
33072;SDS011;19432;48.946;8.846;2022-08-19T11:14:15;3.80;;;3.50;;
33072;SDS011;19432;48.946;8.846;2022-08-19T11:16:46;3.58;;;3.25;;
33072;SDS011;19432;48.946;8.846;2022-08-19T11:19:15;3.83;;;3.53;;
33072;SDS011;19432;48.946;8.846;2022-08-19T11:21:44;3.67;;;3.38;;
33072;SDS011;19432;48.946;8.846;2022-08-19T11:24:14;3.83;;;3.53;;
33072;SDS011;19432;48.946;8.846;2022-08-19T11:26:45;3.97;;;3.58;;
33072;SDS011;19432;48.946;8.846;2022-08-19T11:29:14;3.85;;;3.42;;
33072;SDS011;19432;48.946;8.846;2022-08-19T11:31:42;4.43;;;4.03;;
33072;SDS011;19432;48.946;8.846;2022-08-19T11:34:11;3.83;;;3.50;;
33072;SDS011;19432;48.946;8.846;2022-08-19T11:36:39;3.60;;;3.30;;
33072;SDS011;19432;48.946;8.846;2022-08-19T11:39:07;3.80;;;3.50;;
33072;SDS011;19432;48.946;8.846;2022-08-19T11:41:34;4.28;;;3.88;;
33072;SDS011;19432;48.946;8.846;2022-08-19T11:44:00;4.43;;;4.03;;
33072;SDS011;19432;48.946;8.846;2022-08-19T11:46:28;3.60;;;3.17;;
33072;SDS011;19432;48.946;8.846;2022-08-19T11:48:57;3.95;;;3.65;;
33072;SDS011;19432;48.946;8.846;2022-08-19T11:51:25;4.20;;;3.80;;
33072;SDS011;19432;48.946;8.846;2022-08-19T11:53:53;4.97;;;3.88;;
33072;SDS011;19432;48.946;8.846;2022-08-19T11:56:20;3.75;;;3.38;;
33072;SDS011;19432;48.946;8.846;2022-08-19T11:58:46;3.88;;;3.40;;
33072;SDS011;19432;48.946;8.846;2022-08-19T12:01:13;4.00;;;3.60;;
33072;SDS011;19432;48.946;8.846;2022-08-19T12:03:41;4.53;;;3.67;;
33072;SDS011;19432;48.946;8.846;2022-08-19T12:06:09;4.13;;;3.78;;
33072;SDS011;19432;48.946;8.846;2022-08-19T12:08:40;4.20;;;3.80;;
33072;SDS011;19432;48.946;8.846;2022-08-19T12:11:07;4.15;;;3.75;;
33072;SDS011;19432;48.946;8.846;2022-08-19T12:13:33;4.63;;;4.22;;
33072;SDS011;19432;48.946;8.846;2022-08-19T12:16:00;4.28;;;3.97;;
33072;SDS011;19432;48.946;8.846;2022-08-19T12:18:31;4.20;;;3.80;;
33072;SDS011;19432;48.946;8.846;2022-08-19T12:20:57;4.20;;;3.90;;
33072;SDS011;19432;48.946;8.846;2022-08-19T12:23:26;4.55;;;4.15;;
33072;SDS011;19432;48.946;8.846;2022-08-19T12:25:51;4.28;;;3.78;;
33072;SDS011;19432;48.946;8.846;2022-08-19T12:28:18;4.28;;;3.92;;
33072;SDS011;19432;48.946;8.846;2022-08-19T12:30:44;4.28;;;3.95;;
33072;SDS011;19432;48.946;8.846;2022-08-19T12:33:10;4.18;;;3.88;;
33072;SDS011;19432;48.946;8.846;2022-08-19T12:35:39;4.05;;;3.75;;
33072;SDS011;19432;48.946;8.846;2022-08-19T12:38:12;4.55;;;4.15;;
33072;SDS011;19432;48.946;8.846;2022-08-19T12:40:39;4.32;;;3.92;;
33072;SDS011;19432;48.946;8.846;2022-08-19T12:43:06;4.60;;;4.20;;
33072;SDS011;19432;48.946;8.846;2022-08-19T12:45:32;4.35;;;3.95;;
33072;SDS011;19432;48.946;8.846;2022-08-19T12:47:58;4.25;;;3.88;;
33072;SDS011;19432;48.946;8.846;2022-08-19T12:50:24;4.53;;;4.13;;
33072;SDS011;19432;48.946;8.846;2022-08-19T12:52:50;5.28;;;4.78;;
33072;SDS011;19432;48.946;8.846;2022-08-19T12:55:16;4.30;;;3.90;;
33072;SDS011;19432;48.946;8.846;2022-08-19T12:57:43;3.97;;;3.65;;
33072;SDS011;19432;48.946;8.846;2022-08-19T13:00:11;4.20;;;3.80;;
33072;SDS011;19432;48.946;8.846;2022-08-19T13:02:39;4.47;;;4.03;;
33072;SDS011;19432;48.946;8.846;2022-08-19T13:05:09;4.32;;;3.97;;
33072;SDS011;19432;48.946;8.846;2022-08-19T13:07:39;4.63;;;4.22;;
33072;SDS011;19432;48.946;8.846;2022-08-19T13:10:06;4.05;;;3.63;;
33072;SDS011;19432;48.946;8.846;2022-08-19T13:12:33;4.45;;;3.92;;
33072;SDS011;19432;48.946;8.846;2022-08-19T13:14:59;4.07;;;3.78;;
33072;SDS011;19432;48.946;8.846;2022-08-19T13:17:24;4.53;;;4.05;;
33072;SDS011;19432;48.946;8.846;2022-08-19T13:19:50;4.13;;;3.72;;
33072;SDS011;19432;48.946;8.846;2022-08-19T13:22:16;4.03;;;3.70;;
33072;SDS011;19432;48.946;8.846;2022-08-19T13:24:42;4.25;;;3.85;;
33072;SDS011;19432;48.946;8.846;2022-08-19T13:27:08;4.15;;;3.85;;
33072;SDS011;19432;48.946;8.846;2022-08-19T13:29:33;4.47;;;4.07;;
33072;SDS011;19432;48.946;8.846;2022-08-19T13:32:17;5.20;;;4.00;;
33072;SDS011;19432;48.946;8.846;2022-08-19T13:35:02;4.07;;;3.67;;
33072;SDS011;19432;48.946;8.846;2022-08-19T13:37:28;3.70;;;3.40;;
33072;SDS011;19432;48.946;8.846;2022-08-19T13:40:16;3.55;;;3.25;;
33072;SDS011;19432;48.946;8.846;2022-08-19T13:42:44;3.80;;;3.50;;
33072;SDS011;19432;48.946;8.846;2022-08-19T13:45:13;3.92;;;3.63;;
33072;SDS011;19432;48.946;8.846;2022-08-19T13:47:41;3.95;;;3.65;;
33072;SDS011;19432;48.946;8.846;2022-08-19T13:50:10;3.90;;;3.60;;
33072;SDS011;19432;48.946;8.846;2022-08-19T13:52:38;3.58;;;3.28;;
33072;SDS011;19432;48.946;8.846;2022-08-19T13:55:05;3.25;;;3.05;;
33072;SDS011;19432;48.946;8.846;2022-08-19T13:57:31;3.40;;;3.10;;
33072;SDS011;19432;48.946;8.846;2022-08-19T13:59:57;3.53;;;3.22;;
33072;SDS011;19432;48.946;8.846;2022-08-19T14:02:23;3.97;;;3.63;;
33072;SDS011;19432;48.946;8.846;2022-08-19T14:04:50;3.80;;;3.50;;
33072;SDS011;19432;48.946;8.846;2022-08-19T14:07:15;4.10;;;3.78;;
33072;SDS011;19432;48.946;8.846;2022-08-19T14:09:41;4.30;;;3.97;;
33072;SDS011;19432;48.946;8.846;2022-08-19T14:12:07;4.45;;;4.13;;
33072;SDS011;19432;48.946;8.846;2022-08-19T14:14:36;4.70;;;4.30;;
33072;SDS011;19432;48.946;8.846;2022-08-19T14:17:05;4.97;;;4.55;;
33072;SDS011;19432;48.946;8.846;2022-08-19T14:19:31;4.40;;;4.00;;
33072;SDS011;19432;48.946;8.846;2022-08-19T14:21:57;4.97;;;4.57;;
33072;SDS011;19432;48.946;8.846;2022-08-19T14:24:22;4.75;;;4.35;;
33072;SDS011;19432;48.946;8.846;2022-08-19T14:26:48;4.97;;;4.47;;
33072;SDS011;19432;48.946;8.846;2022-08-19T14:29:14;4.63;;;4.22;;
33072;SDS011;19432;48.946;8.846;2022-08-19T14:31:40;4.35;;;3.95;;
33072;SDS011;19432;48.946;8.846;2022-08-19T14:34:08;4.35;;;3.95;;
33072;SDS011;19432;48.946;8.846;2022-08-19T14:36:35;5.05;;;4.65;;
33072;SDS011;19432;48.946;8.846;2022-08-19T14:39:01;4.40;;;4.03;;
33072;SDS011;19432;48.946;8.846;2022-08-19T14:41:27;4.30;;;3.90;;
33072;SDS011;19432;48.946;8.846;2022-08-19T14:43:55;4.00;;;3.70;;
33072;SDS011;19432;48.946;8.846;2022-08-19T14:46:25;4.28;;;3.92;;
33072;SDS011;19432;48.946;8.846;2022-08-19T14:48:52;4.00;;;3.70;;
33072;SDS011;19432;48.946;8.846;2022-08-19T14:51:18;4.35;;;3.95;;
33072;SDS011;19432;48.946;8.846;2022-08-19T14:53:45;4.72;;;4.22;;
33072;SDS011;19432;48.946;8.846;2022-08-19T14:56:14;5.20;;;4.00;;
33072;SDS011;19432;48.946;8.846;2022-08-19T14:58:44;4.43;;;4.03;;
33072;SDS011;19432;48.946;8.846;2022-08-19T15:01:11;4.13;;;3.75;;
33072;SDS011;19432;48.946;8.846;2022-08-19T15:03:38;4.30;;;4.00;;
33072;SDS011;19432;48.946;8.846;2022-08-19T15:06:05;4.68;;;4.28;;
33072;SDS011;19432;48.946;8.846;2022-08-19T15:08:33;4.45;;;3.95;;